Time;durP1;ratioP1;P1;durP2;ratioP2;P2;SDS_P1;SDS_P2;PMS_P1;PMS_P2;Temp;Humidity;BMP_temperature;BMP_pressure;BME280_temperature;BME280_humidity;BME280_pressure;Samples;Min_cycle;Max_cycle;Signal;HPM_P1;HPM_P2
2022/01/29 00:02:19;;;;;;;1.08;1.08;;;;;;;1.07;90.67;100481.59;5006377;28;20054;-72
2022/01/29 00:04:46;;;;;;;1.50;1.40;;;;;;;1.00;90.70;100477.84;5003184;28;20152;-73
2022/01/29 00:07:12;;;;;;;1.70;1.60;;;;;;;1.05;90.89;100460.22;5011338;28;20026;-73
2022/01/29 00:09:38;;;;;;;1.20;1.20;;;;;;;1.15;91.02;100465.81;5011787;28;20032;-73
2022/01/29 00:12:04;;;;;;;2.08;1.88;;;;;;;1.09;91.09;100468.09;5013318;28;20022;-73
2022/01/29 00:14:29;;;;;;;0.85;0.85;;;;;;;1.24;91.51;100463.69;5015182;28;20378;-73
2022/01/29 00:16:54;;;;;;;1.13;1.13;;;;;;;1.27;92.04;100468.94;5014662;28;20038;-73
2022/01/29 00:19:20;;;;;;;1.35;1.33;;;;;;;1.39;91.62;100468.63;5016831;28;20112;-75
2022/01/29 00:21:45;;;;;;;0.90;0.90;;;;;;;1.23;90.98;100464.50;5017202;28;20091;-76
2022/01/29 00:24:10;;;;;;;1.85;1.00;;;;;;;1.34;90.99;100467.53;5015605;28;20471;-73
2022/01/29 00:26:36;;;;;;;0.82;0.82;;;;;;;1.40;90.80;100461.84;5014510;28;20441;-73
2022/01/29 00:29:09;;;;;;;0.70;0.70;;;;;;;1.18;90.58;100453.22;5014964;28;20173;-73
2022/01/29 00:31:34;;;;;;;1.85;1.75;;;;;;;1.20;90.54;100450.72;5014905;28;20101;-73
2022/01/29 00:33:59;;;;;;;1.08;1.08;;;;;;;1.31;90.14;100438.47;5003302;28;20049;-73
2022/01/29 00:36:25;;;;;;;1.85;1.83;;;;;;;1.45;90.82;100433.19;5010932;28;20032;-73
2022/01/29 00:38:50;;;;;;;1.38;1.27;;;;;;;1.38;90.35;100435.38;5014848;28;20033;-73
2022/01/29 00:41:15;;;;;;;6.13;1.20;;;;;;;1.29;90.69;100421.38;5014774;28;20022;-73
2022/01/29 00:43:40;;;;;;;2.17;1.65;;;;;;;1.38;90.58;100415.81;5014748;28;20383;-73
2022/01/29 00:46:06;;;;;;;1.42;1.33;;;;;;;1.31;89.79;100405.28;5014422;28;20025;-73
2022/01/29 00:48:31;;;;;;;0.80;0.80;;;;;;;1.36;89.11;100403.81;5014449;28;20030;-73
2022/01/29 00:51:00;;;;;;;1.80;1.70;;;;;;;1.23;89.94;100395.56;5014449;28;20021;-73
2022/01/29 00:53:25;;;;;;;1.08;1.08;;;;;;;1.32;89.55;100401.91;5014594;28;20038;-73
2022/01/29 00:55:50;;;;;;;1.38;1.33;;;;;;;1.26;90.30;100400.84;5014325;28;20232;-73
2022/01/29 00:58:15;;;;;;;1.73;1.63;;;;;;;1.24;90.36;100397.31;5014280;28;20073;-73
2022/01/29 08:01:21;;;;;;;2.77;2.57;;;;;;;2.00;90.23;100191.91;5540261;23;20820;-73
2022/01/29 08:03:48;;;;;;;2.25;1.90;;;;;;;1.92;90.56;100185.59;4964878;28;20369;-73
2022/01/29 08:06:17;;;;;;;1.40;1.38;;;;;;;1.65;90.83;100178.59;4971234;28;19914;-73
2022/01/29 08:08:42;;;;;;;1.45;1.35;;;;;;;1.87;91.25;100187.13;4960582;28;20059;-73
2022/01/29 08:11:08;;;;;;;4.10;2.67;;;;;;;1.95;90.84;100175.50;4910026;28;20074;-72
2022/01/29 08:13:35;;;;;;;3.10;2.88;;;;;;;2.06;90.50;100184.47;4968573;28;20395;-72
2022/01/29 08:16:01;;;;;;;2.70;2.08;;;;;;;1.71;91.01;100171.19;4957042;28;20024;-66
2022/01/29 08:18:26;;;;;;;3.03;2.83;;;;;;;1.67;91.87;100169.31;4956945;28;20023;-66
2022/01/29 08:20:51;;;;;;;5.88;3.30;;;;;;;1.85;91.93;100170.88;4956724;28;20476;-66
2022/01/29 08:23:17;;;;;;;1.58;1.48;;;;;;;1.83;90.69;100169.91;4956969;28;20055;-66
2022/01/29 08:25:42;;;;;;;2.47;2.28;;;;;;;1.97;90.53;100153.44;4956626;28;20027;-66
2022/01/29 08:28:08;;;;;;;5.75;4.63;;;;;;;2.08;89.65;100152.19;4956678;29;20027;-66
2022/01/29 08:30:34;;;;;;;6.53;5.70;;;;;;;2.09;89.12;100153.91;4956492;28;20023;-66
2022/01/29 08:33:00;;;;;;;3.47;2.60;;;;;;;2.37;89.06;100157.47;4960233;28;20449;-66
2022/01/29 08:35:26;;;;;;;2.72;1.95;;;;;;;2.43;88.49;100150.94;4967659;28;20416;-66
2022/01/29 08:37:52;;;;;;;2.47;2.38;;;;;;;2.51;87.95;100148.63;4971109;28;20030;-66
2022/01/29 08:40:17;;;;;;;3.38;3.13;;;;;;;2.44;88.37;100154.34;4967509;28;20029;-66
2022/01/29 08:42:43;;;;;;;2.55;2.35;;;;;;;2.62;87.84;100137.13;4975838;28;20027;-66
2022/01/29 08:45:08;;;;;;;4.75;2.13;;;;;;;2.73;86.47;100146.03;4975550;28;20050;-66
2022/01/29 08:47:34;;;;;;;2.58;2.38;;;;;;;2.82;84.37;100146.38;4975625;28;20031;-66
2022/01/29 08:50:03;;;;;;;2.13;2.00;;;;;;;3.20;83.72;100144.25;4975647;28;20478;-66
2022/01/29 08:52:28;;;;;;;1.15;1.15;;;;;;;3.37;82.57;100146.50;4975058;28;20027;-66
2022/01/29 08:54:53;;;;;;;4.57;2.85;;;;;;;3.43;80.07;100141.56;4975014;28;20031;-66
2022/01/29 08:57:19;;;;;;;1.63;1.52;;;;;;;3.45;80.92;100139.94;4975250;28;20528;-66
2022/01/29 08:59:44;;;;;;;0.77;0.77;;;;;;;3.65;78.89;100136.31;4975402;28;20033;-66
2022/01/29 09:02:09;;;;;;;1.95;0.85;;;;;;;3.68;78.25;100133.00;4970664;28;20034;-66
2022/01/29 09:04:35;;;;;;;1.45;1.35;;;;;;;3.60;77.83;100141.28;4964929;28;20077;-66
2022/01/29 09:07:01;;;;;;;0.80;0.77;;;;;;;3.51;78.04;100137.56;4975080;28;20035;-68
2022/01/29 09:09:26;;;;;;;3.42;1.00;;;;;;;3.71;78.29;100133.94;4975313;28;20026;-66
2022/01/29 09:11:53;;;;;;;0.82;0.80;;;;;;;3.84;76.66;100124.94;4975099;28;20035;-66
2022/01/29 09:14:20;;;;;;;1.05;1.05;;;;;;;3.97;76.61;100127.06;4975035;28;20109;-67
2022/01/29 09:16:45;;;;;;;1.10;1.08;;;;;;;3.99;76.34;100132.22;4974912;28;20030;-65
2022/01/29 09:19:11;;;;;;;1.58;1.48;;;;;;;4.12;75.30;100122.38;4975000;28;20035;-66
2022/01/29 09:21:36;;;;;;;0.77;0.77;;;;;;;4.18;73.18;100125.94;4976149;28;20054;-65
2022/01/29 09:24:02;;;;;;;1.75;1.48;;;;;;;4.34;73.55;100123.00;4975906;28;20117;-65
2022/01/29 09:26:28;;;;;;;5.40;1.48;;;;;;;4.22;72.58;100115.81;4975283;28;20038;-65
2022/01/29 09:28:53;;;;;;;0.60;0.60;;;;;;;4.28;72.45;100112.56;4974652;28;20026;-66
2022/01/29 09:31:18;;;;;;;1.00;1.00;;;;;;;4.23;72.00;100114.13;4974745;28;20444;-65
2022/01/29 09:33:44;;;;;;;0.90;0.90;;;;;;;4.37;72.20;100113.69;4965488;28;20425;-65
2022/01/29 09:36:09;;;;;;;0.93;0.93;;;;;;;4.46;71.94;100117.34;4968522;28;20105;-65
2022/01/29 09:38:35;;;;;;;0.65;0.65;;;;;;;4.51;71.95;100113.22;4974629;28;20054;-66
2022/01/29 09:41:01;;;;;;;1.00;1.00;;;;;;;4.59;72.36;100109.16;4974644;28;20062;-66
2022/01/29 09:43:30;;;;;;;0.85;0.85;;;;;;;4.56;72.13;100107.38;4973824;28;20027;-65
2022/01/29 09:45:55;;;;;;;1.15;1.15;;;;;;;4.39;71.89;100106.91;4973838;28;20384;-66
2022/01/29 09:48:22;;;;;;;1.27;1.25;;;;;;;4.41;72.48;100109.53;4974574;28;20038;-65
2022/01/29 09:50:49;;;;;;;1.88;0.80;;;;;;;4.39;72.24;100112.03;4974486;28;20115;-66
2022/01/29 09:53:14;;;;;;;0.90;0.90;;;;;;;4.48;72.17;100110.56;4974490;28;20058;-66
2022/01/29 09:55:42;;;;;;;2.70;1.52;;;;;;;4.62;71.63;100104.97;4974345;28;20047;-66
2022/01/29 09:58:07;;;;;;;0.88;0.88;;;;;;;4.81;70.75;100101.19;4974224;28;20023;-65
2022/01/29 10:00:33;;;;;;;1.08;1.02;;;;;;;5.09;71.54;100101.94;4973937;28;20034;-66
2022/01/29 10:03:14;;;;;;;2.83;1.08;;;;;;;5.35;69.27;100100.84;4967361;28;20030;-66
2022/01/29 10:05:42;;;;;;;1.55;1.45;;;;;;;5.34;68.73;100099.13;4966035;28;20195;-66
2022/01/29 10:08:08;;;;;;;3.55;2.28;;;;;;;5.57;68.03;100091.97;4974178;28;20119;-65
2022/01/29 10:10:39;;;;;;;0.90;0.90;;;;;;;5.57;68.48;100096.25;4972873;28;20377;-65
2022/01/29 10:13:22;;;;;;;1.23;0.95;;;;;;;5.72;68.27;100086.31;4974086;28;20480;-65
2022/01/29 10:15:50;;;;;;;1.25;1.25;;;;;;;5.56;67.90;100079.06;4973771;28;20026;-65
2022/01/29 10:18:24;;;;;;;1.60;1.50;;;;;;;5.39;68.94;100081.25;4973958;28;20069;-67
2022/01/29 10:20:50;;;;;;;0.88;0.88;;;;;;;5.37;69.94;100078.66;4973738;28;20121;-65
2022/01/29 10:23:16;;;;;;;1.15;1.05;;;;;;;5.12;70.39;100072.03;4973859;28;20110;-65
2022/01/29 10:25:44;;;;;;;0.77;0.77;;;;;;;5.13;71.62;100072.91;4973564;28;20084;-65
2022/01/29 10:28:20;;;;;;;0.85;0.85;;;;;;;5.30;70.79;100075.88;4973918;28;20034;-65
2022/01/29 10:30:49;;;;;;;2.00;1.75;;;;;;;5.56;70.59;100063.63;4973623;28;20038;-66
2022/01/29 10:33:18;;;;;;;7.90;1.02;;;;;;;5.67;70.27;100062.19;4966619;28;20089;-66
2022/01/29 10:35:52;;;;;;;0.77;0.77;;;;;;;5.78;70.73;100055.56;4965326;28;20023;-66
2022/01/29 10:38:22;;;;;;;0.80;0.80;;;;;;;5.78;69.73;100062.44;4973851;28;20031;-66
2022/01/29 10:41:10;;;;;;;0.50;0.50;;;;;;;5.73;70.66;100064.91;4973429;28;20034;-65
2022/01/29 10:43:52;;;;;;;0.68;0.68;;;;;;;5.69;70.28;100065.66;4964248;28;20410;-65
2022/01/29 10:46:25;;;;;;;1.00;0.93;;;;;;;5.64;70.50;100062.13;4973378;28;20030;-65
2022/01/29 10:48:50;;;;;;;0.65;0.65;;;;;;;5.58;70.54;100056.84;4973684;28;20027;-68
2022/01/29 10:51:15;;;;;;;1.10;0.88;;;;;;;5.75;70.53;100045.22;4973244;28;20034;-67
2022/01/29 10:53:41;;;;;;;1.00;1.00;;;;;;;5.76;70.14;100052.13;4973861;28;20484;-66
2022/01/29 10:56:06;;;;;;;1.48;1.38;;;;;;;5.91;69.84;100051.56;4972926;28;20051;-66
2022/01/29 10:58:42;;;;;;;2.25;2.15;;;;;;;5.79;70.04;100054.72;4973151;28;20031;-66
2022/01/29 11:01:13;;;;;;;0.77;0.77;;;;;;;5.75;70.07;100060.63;4973151;28;20034;-66
2022/01/29 11:03:39;;;;;;;1.08;0.73;;;;;;;5.68;70.70;100058.78;4964786;28;20034;-66
2022/01/29 11:06:08;;;;;;;1.45;0.95;;;;;;;5.90;70.96;100053.28;4966498;28;20047;-66
2022/01/29 11:08:34;;;;;;;0.60;0.60;;;;;;;6.08;70.71;100046.81;4973161;28;20030;-66
2022/01/29 11:10:59;;;;;;;1.60;1.05;;;;;;;6.02;70.36;100042.41;4973105;28;20114;-66
2022/01/29 11:13:25;;;;;;;1.83;1.60;;;;;;;6.07;70.42;100048.50;4973099;28;20043;-65
2022/01/29 11:15:52;;;;;;;0.85;0.85;;;;;;;5.99;70.12;100038.88;4973248;28;20452;-65
2022/01/29 11:18:18;;;;;;;0.80;0.80;;;;;;;6.03;70.88;100040.69;4973155;28;20030;-66
2022/01/29 11:20:44;;;;;;;1.88;1.05;;;;;;;5.96;72.07;100037.13;4973074;28;20486;-66
2022/01/29 11:23:11;;;;;;;4.85;1.45;;;;;;;6.01;71.66;100032.09;4973073;28;20033;-66
2022/01/29 11:25:36;;;;;;;1.63;1.50;;;;;;;6.04;71.67;100032.13;4972924;28;20472;-66
2022/01/29 11:28:14;;;;;;;9.45;2.38;;;;;;;6.17;71.45;100018.69;4972818;28;20034;-66
2022/01/29 11:30:44;;;;;;;1.00;0.98;;;;;;;6.12;71.56;100030.59;4973072;28;20026;-68
2022/01/29 11:33:10;;;;;;;1.00;1.00;;;;;;;6.14;71.39;100024.66;4966004;28;20019;-68
2022/01/29 11:35:53;;;;;;;0.80;0.80;;;;;;;6.07;71.40;100016.78;4964873;28;20076;-68
2022/01/29 11:38:32;;;;;;;1.55;0.82;;;;;;;6.11;72.16;100021.16;4972812;28;20396;-68
2022/01/29 11:41:03;;;;;;;1.08;1.08;;;;;;;6.08;72.14;100018.50;4962534;28;20476;-68
2022/01/29 11:43:30;;;;;;;3.60;2.40;;;;;;;6.16;72.35;100011.81;4973079;28;20433;-68
2022/01/29 11:46:30;;;;;;;4.40;1.80;;;;;;;6.26;71.99;100013.72;4972796;28;20030;-68
2022/01/29 11:48:57;;;;;;;0.68;0.68;;;;;;;6.34;72.54;100012.16;4973075;28;20027;-69
2022/01/29 11:51:39;;;;;;;0.93;0.93;;;;;;;6.27;72.45;100005.16;4973167;28;20113;-67
2022/01/29 11:54:05;;;;;;;4.47;1.27;;;;;;;6.40;72.71;100008.84;4972861;28;20392;-69
2022/01/29 11:56:35;;;;;;;0.88;0.88;;;;;;;6.34;72.22;100001.00;4972657;28;20026;-67
2022/01/29 11:59:27;;;;;;;0.95;0.95;;;;;;;6.25;73.12;99996.56;4972629;28;20126;-70
2022/01/29 12:01:58;;;;;;;1.15;1.10;;;;;;;6.28;73.23;99990.56;4963993;28;20049;-67
2022/01/29 12:04:44;;;;;;;0.80;0.80;;;;;;;6.21;73.09;99994.75;4961150;28;20027;-67
2022/01/29 12:07:20;;;;;;;0.90;0.90;;;;;;;6.18;73.70;99987.81;4972914;28;20049;-67
2022/01/29 12:10:07;;;;;;;2.30;1.80;;;;;;;6.35;73.62;99992.44;4975183;28;20031;-68
2022/01/29 12:12:37;;;;;;;2.95;2.00;;;;;;;6.51;72.76;99983.28;4968251;28;20030;-67
2022/01/29 12:15:08;;;;;;;1.85;1.70;;;;;;;6.39;73.94;99984.81;4976220;28;20026;-67
2022/01/29 12:17:46;;;;;;;0.68;0.68;;;;;;;6.29;74.50;99985.47;4975918;28;20484;-67
2022/01/29 12:20:14;;;;;;;2.28;2.17;;;;;;;6.29;75.40;99982.91;4976007;28;20030;-66
2022/01/29 12:22:41;;;;;;;2.15;1.77;;;;;;;6.21;75.16;99981.88;4976041;28;20056;-67
2022/01/29 12:25:11;;;;;;;0.70;0.70;;;;;;;6.15;75.56;99974.06;4975939;28;20027;-67
2022/01/29 12:27:43;;;;;;;0.70;0.70;;;;;;;5.98;76.19;99981.44;4975869;28;20448;-73
2022/01/29 12:30:10;;;;;;;1.00;0.70;;;;;;;5.84;77.98;99972.53;4975756;28;20491;-68
2022/01/29 12:32:35;;;;;;;0.63;0.63;;;;;;;5.71;79.02;99976.59;4968796;28;20035;-69
2022/01/29 12:35:03;;;;;;;0.60;0.60;;;;;;;5.68;79.88;99973.94;4967782;28;20023;-70
2022/01/29 12:37:28;;;;;;;1.08;1.08;;;;;;;5.60;79.77;99967.75;4975542;28;20515;-69
2022/01/29 12:40:21;;;;;;;1.48;0.57;;;;;;;5.56;80.38;99955.66;4974719;28;20054;-73
2022/01/29 12:42:56;;;;;;;0.85;0.85;;;;;;;5.59;80.56;99948.03;4967335;28;20468;-73
2022/01/29 12:45:24;;;;;;;0.88;0.88;;;;;;;5.72;81.00;99942.31;4975581;28;20564;-69
2022/01/29 12:47:50;;;;;;;1.02;1.02;;;;;;;5.61;81.26;99941.22;4975479;28;20027;-69
2022/01/29 12:50:20;;;;;;;0.93;0.93;;;;;;;5.54;82.64;99936.78;4975593;28;20038;-68
2022/01/29 12:52:46;;;;;;;1.02;1.02;;;;;;;5.54;82.95;99931.66;4975482;28;20073;-66
2022/01/29 12:55:12;;;;;;;0.55;0.55;;;;;;;5.52;83.21;99929.06;4975455;28;20058;-67
2022/01/29 12:57:41;;;;;;;0.75;0.75;;;;;;;5.62;81.87;99919.81;4975191;28;20027;-67
2022/01/29 13:00:09;;;;;;;0.80;0.80;;;;;;;5.51;80.96;99917.03;4975526;28;20034;-66
2022/01/29 13:02:34;;;;;;;0.75;0.75;;;;;;;5.45;81.24;99909.19;4968163;28;20038;-67
2022/01/29 13:05:01;;;;;;;0.80;0.80;;;;;;;5.59;80.12;99907.75;4967066;28;20169;-73
2022/01/29 13:07:26;;;;;;;1.05;1.00;;;;;;;5.72;79.79;99896.03;4974939;28;20538;-71
2022/01/29 13:09:55;;;;;;;1.15;1.15;;;;;;;5.73;79.52;99891.75;4973982;28;20184;-71
2022/01/29 13:12:21;;;;;;;1.55;1.42;;;;;;;5.81;79.29;99878.22;4975130;28;20022;-74
2022/01/29 13:14:50;;;;;;;1.25;0.93;;;;;;;5.78;78.26;99878.13;4975163;28;20027;-70
2022/01/29 13:17:16;;;;;;;0.60;0.60;;;;;;;5.88;78.22;99877.47;4975017;28;20045;-71
2022/01/29 13:19:43;;;;;;;0.50;0.50;;;;;;;5.90;78.24;99875.81;4974957;28;20514;-72
2022/01/29 13:22:10;;;;;;;0.70;0.70;;;;;;;5.84;79.61;99870.53;4974370;28;20041;-72
2022/01/29 13:24:44;;;;;;;0.70;0.70;;;;;;;5.93;77.79;99870.72;4973553;28;20041;-71
2022/01/29 13:27:12;;;;;;;3.00;1.15;;;;;;;5.87;78.19;99870.59;4974421;28;20041;-71
2022/01/29 13:29:48;;;;;;;0.60;0.60;;;;;;;5.75;78.19;99875.50;4974949;28;20031;-73
2022/01/29 13:32:25;;;;;;;0.85;0.85;;;;;;;5.76;78.64;99871.25;4931347;28;20051;-66
2022/01/29 13:34:51;;;;;;;0.95;0.95;;;;;;;5.74;78.80;99873.78;4966041;28;20512;-69
2022/01/29 13:37:29;;;;;;;1.98;1.15;;;;;;;5.86;79.10;99874.00;4974813;28;20062;-74
2022/01/29 13:39:55;;;;;;;4.43;0.77;;;;;;;5.83;78.92;99868.81;4973496;28;20023;-74
2022/01/29 13:42:22;;;;;;;0.80;0.80;;;;;;;5.85;79.12;99867.16;4966515;28;20027;-72
2022/01/29 13:45:19;;;;;;;1.95;1.00;;;;;;;5.89;79.71;99858.63;4974367;28;20535;-73
2022/01/29 13:48:01;;;;;;;10.85;9.05;;;;;;;5.92;79.77;99863.88;4974325;28;20503;-75
2022/01/29 13:50:53;;;;;;;1.42;1.15;;;;;;;5.92;79.71;99858.72;4974674;28;20046;-73
2022/01/29 13:53:20;;;;;;;2.75;0.82;;;;;;;6.04;79.65;99862.34;4971842;28;20038;-72
2022/01/29 13:55:54;;;;;;;1.08;1.08;;;;;;;6.04;79.34;99872.63;4974014;28;20025;-71
2022/01/29 13:58:20;;;;;;;0.93;0.90;;;;;;;6.13;79.06;99857.34;4974309;28;20033;-71
2022/01/29 14:00:56;;;;;;;1.23;1.23;;;;;;;6.02;78.74;99864.03;4974005;28;20026;-66
2022/01/29 14:03:59;;;;;;;0.82;0.82;;;;;;;5.98;78.60;99862.25;4967140;28;20281;-68
2022/01/29 14:06:35;;;;;;;2.22;1.80;;;;;;;6.00;78.64;99855.44;4966056;28;20500;-68
2022/01/29 14:09:12;;;;;;;0.52;0.52;;;;;;;6.08;78.00;99846.13;4974440;28;20056;-75
2022/01/29 14:11:52;;;;;;;0.60;0.60;;;;;;;6.02;78.59;99825.44;4964704;28;20027;-74
2022/01/29 14:14:17;;;;;;;0.50;0.50;;;;;;;6.02;77.46;99830.59;4977921;23;20031;-74
2022/01/29 14:16:42;;;;;;;0.75;0.75;;;;;;;6.07;77.78;99818.66;4935327;29;20042;-74
2022/01/29 14:19:19;;;;;;;1.38;1.00;;;;;;;6.12;77.91;99830.75;4935570;29;20030;-74
2022/01/29 14:21:46;;;;;;;0.75;0.75;;;;;;;6.13;78.16;99836.78;4935340;29;20488;-74
2022/01/29 14:24:12;;;;;;;0.82;0.82;;;;;;;6.10;78.59;99836.75;4935290;29;20123;-73
2022/01/29 14:26:38;;;;;;;0.50;0.50;;;;;;;6.07;77.82;99827.25;4935116;29;20515;-74
2022/01/29 14:29:04;;;;;;;0.55;0.55;;;;;;;6.10;77.94;99816.16;4935296;29;20035;-73
2022/01/29 14:31:29;;;;;;;0.50;0.50;;;;;;;6.11;77.56;99807.59;4934657;29;20103;-74
2022/01/29 14:33:55;;;;;;;0.60;0.60;;;;;;;6.11;76.67;99807.59;4943033;28;20038;-74
2022/01/29 14:36:20;;;;;;;1.25;0.85;;;;;;;6.17;77.49;99792.25;4949628;29;20038;-74
2022/01/29 14:38:46;;;;;;;0.88;0.88;;;;;;;6.17;77.21;99792.25;4953834;28;20408;-74
2022/01/29 14:41:11;;;;;;;0.50;0.50;;;;;;;6.13;76.87;99780.16;4947539;28;20465;-74
2022/01/29 14:43:36;;;;;;;0.75;0.75;;;;;;;6.21;77.11;99781.16;4951890;29;20122;-74
2022/01/29 14:46:04;;;;;;;0.50;0.50;;;;;;;6.11;77.68;99782.72;4953882;28;20031;-74
2022/01/29 14:48:29;;;;;;;1.83;1.00;;;;;;;6.13;77.38;99769.88;4953826;28;20464;-74
2022/01/29 14:50:55;;;;;;;1.35;0.85;;;;;;;6.19;77.49;99775.16;4954120;28;20029;-73
2022/01/29 14:53:22;;;;;;;1.83;1.67;;;;;;;6.07;77.82;99774.94;4954088;28;20034;-73
2022/01/29 14:55:47;;;;;;;0.77;0.77;;;;;;;6.10;78.01;99767.28;4953932;28;20104;-74
2022/01/29 14:58:12;;;;;;;0.60;0.60;;;;;;;6.16;77.90;99769.94;4954084;28;20082;-74
2022/01/29 15:00:38;;;;;;;0.95;0.60;;;;;;;6.12;78.05;99770.72;4953563;28;20023;-73
2022/01/29 15:03:03;;;;;;;0.50;0.50;;;;;;;6.11;78.15;99776.72;4946917;28;20178;-74
2022/01/29 15:05:31;;;;;;;0.70;0.70;;;;;;;6.15;78.43;99784.50;4945877;28;20392;-74
2022/01/29 15:07:57;;;;;;;1.15;1.08;;;;;;;6.25;78.35;99780.38;4953716;28;20132;-72
2022/01/29 15:10:22;;;;;;;1.10;1.10;;;;;;;6.13;78.27;99775.03;4952662;28;20539;-73
2022/01/29 15:12:47;;;;;;;0.40;0.40;;;;;;;6.25;78.01;99790.66;4945656;28;20027;-73
2022/01/29 15:15:13;;;;;;;0.55;0.55;;;;;;;6.23;78.41;99788.91;4953611;28;20117;-74
2022/01/29 15:17:38;;;;;;;0.60;0.60;;;;;;;6.21;78.74;99794.03;4953688;28;20027;-73
2022/01/29 15:20:04;;;;;;;0.40;0.40;;;;;;;6.18;78.17;99804.25;4953711;28;20038;-73
2022/01/29 15:22:30;;;;;;;1.10;1.10;;;;;;;6.22;78.65;99815.47;4953762;28;20376;-73
2022/01/29 15:24:55;;;;;;;0.60;0.60;;;;;;;6.15;78.63;99804.25;4953704;28;20166;-73
2022/01/29 15:27:20;;;;;;;0.95;0.70;;;;;;;6.21;78.57;99814.63;4953559;28;20056;-73
2022/01/29 15:30:19;;;;;;;1.90;0.65;;;;;;;6.07;78.44;99813.53;5069269;28;20411;-73
2022/01/29 15:32:48;;;;;;;1.15;1.15;;;;;;;5.99;78.71;99817.66;5069107;28;20033;-72
2022/01/29 15:35:14;;;;;;;11.25;1.33;;;;;;;6.04;78.40;99828.91;5068982;28;20025;-72
2022/01/29 15:37:40;;;;;;;0.60;0.60;;;;;;;6.08;78.43;99828.13;5068952;28;20063;-72
2022/01/29 15:40:06;;;;;;;1.13;0.63;;;;;;;6.06;78.72;99822.09;5073150;28;20418;-72
2022/01/29 15:42:32;;;;;;;0.75;0.75;;;;;;;5.98;78.67;99821.94;5080844;28;20097;-72
2022/01/29 15:44:58;;;;;;;0.88;0.88;;;;;;;5.95;79.06;99821.03;5089347;28;20031;-72
2022/01/29 15:47:23;;;;;;;1.75;1.23;;;;;;;5.90;79.09;99819.22;5089166;28;20473;-72
2022/01/29 15:49:49;;;;;;;0.75;0.75;;;;;;;5.90;79.06;99834.66;5089216;28;20024;-72
2022/01/29 15:52:14;;;;;;;0.75;0.75;;;;;;;6.03;78.86;99829.75;5089188;28;20032;-72
2022/01/29 15:54:39;;;;;;;1.20;1.10;;;;;;;5.89;78.93;99832.91;5088848;28;20119;-72
2022/01/29 15:57:05;;;;;;;3.60;1.63;;;;;;;5.91;79.37;99846.72;5087695;28;20024;-72
2022/01/29 15:59:30;;;;;;;0.93;0.93;;;;;;;5.92;79.47;99843.28;5088854;28;20016;-72
2022/01/29 16:01:58;;;;;;;1.00;1.00;;;;;;;5.92;79.03;99832.13;5083550;28;20497;-72
2022/01/29 16:04:23;;;;;;;1.38;1.38;;;;;;;5.89;79.55;99838.03;5072745;28;20033;-72
2022/01/29 16:06:48;;;;;;;1.33;1.05;;;;;;;5.81;79.95;99829.34;5087715;28;20038;-72
2022/01/29 16:09:14;;;;;;;0.65;0.65;;;;;;;5.85;80.25;99820.84;5089029;28;20482;-72
2022/01/29 16:11:39;;;;;;;1.05;1.05;;;;;;;5.80;79.64;99817.34;5077882;28;20037;-72
2022/01/29 16:14:05;;;;;;;0.70;0.70;;;;;;;5.78;79.42;99819.00;5088750;28;20028;-72
2022/01/29 16:16:30;;;;;;;1.08;1.08;;;;;;;5.79;79.30;99820.72;5088478;28;20025;-73
2022/01/29 16:18:55;;;;;;;2.20;0.85;;;;;;;5.94;80.14;99815.00;5088747;28;20025;-73
2022/01/29 16:21:21;;;;;;;1.38;1.10;;;;;;;5.87;79.44;99819.16;5088452;28;20064;-73
2022/01/29 16:23:46;;;;;;;1.23;1.05;;;;;;;5.83;79.92;99808.78;5088732;28;20036;-73
2022/01/29 16:26:12;;;;;;;1.38;0.98;;;;;;;5.66;80.88;99808.50;5088347;28;20020;-73
2022/01/29 16:28:37;;;;;;;2.08;0.77;;;;;;;5.82;79.39;99805.34;5088286;28;20540;-72
2022/01/29 16:31:02;;;;;;;0.73;0.73;;;;;;;5.85;79.80;99808.00;5088433;28;20439;-74
2022/01/29 16:33:28;;;;;;;0.73;0.73;;;;;;;5.83;80.54;99807.09;5073503;28;20024;-74
2022/01/29 16:35:53;;;;;;;1.20;1.17;;;;;;;5.76;80.10;99810.41;5079425;28;20050;-74
2022/01/29 16:38:19;;;;;;;2.92;2.60;;;;;;;5.75;79.92;99797.50;5088207;28;20016;-74
2022/01/29 16:40:45;;;;;;;1.02;1.02;;;;;;;5.74;80.20;99796.63;5075611;28;20082;-74
2022/01/29 16:43:11;;;;;;;1.13;1.13;;;;;;;5.59;81.15;99807.50;5068693;28;20682;-74
2022/01/29 16:45:41;;;;;;;3.15;1.33;;;;;;;5.65;80.20;99796.47;5074582;28;20059;-74
2022/01/29 16:48:08;;;;;;;1.23;1.23;;;;;;;5.61;80.75;99805.84;5074530;28;20028;-74
2022/01/29 16:50:35;;;;;;;1.27;1.17;;;;;;;5.65;80.46;99801.59;5074489;28;20036;-74
2022/01/29 16:53:02;;;;;;;1.10;0.88;;;;;;;5.61;80.73;99797.28;5074433;28;20029;-74
2022/01/29 16:55:27;;;;;;;3.40;2.55;;;;;;;5.61;80.70;99789.56;5074364;28;20461;-74
2022/01/29 16:57:53;;;;;;;0.82;0.82;;;;;;;5.59;80.71;99791.22;5074289;28;20031;-74
2022/01/29 17:00:18;;;;;;;0.52;0.52;;;;;;;5.62;80.72;99781.00;5074562;28;20024;-74
2022/01/29 17:02:44;;;;;;;0.50;0.50;;;;;;;5.56;80.22;99771.47;5059523;28;20029;-75
2022/01/29 17:05:09;;;;;;;0.50;0.50;;;;;;;5.57;80.00;99770.63;5065718;28;20039;-74
2022/01/29 17:07:35;;;;;;;0.80;0.80;;;;;;;5.54;80.22;99785.13;5074050;28;20024;-74
2022/01/29 17:10:01;;;;;;;0.95;0.90;;;;;;;5.62;80.25;99781.00;5071978;28;20023;-74
2022/01/29 17:12:27;;;;;;;0.70;0.70;;;;;;;5.58;79.93;99768.94;5065931;28;20395;-74
2022/01/29 17:14:53;;;;;;;4.90;0.73;;;;;;;5.61;80.29;99779.28;5074027;28;20024;-74
2022/01/29 17:17:18;;;;;;;0.70;0.70;;;;;;;5.67;80.06;99774.25;5073914;28;20021;-74
2022/01/29 17:19:44;;;;;;;0.63;0.63;;;;;;;5.65;80.03;99765.63;5073667;28;20461;-74
2022/01/29 17:22:12;;;;;;;0.70;0.70;;;;;;;5.64;79.97;99769.88;5074214;28;20074;-74
2022/01/29 17:24:38;;;;;;;0.60;0.60;;;;;;;5.66;79.95;99767.38;5073715;28;20028;-74
2022/01/29 17:27:04;;;;;;;1.23;1.23;;;;;;;5.74;79.90;99772.63;5073695;28;20024;-74
2022/01/29 17:29:29;;;;;;;0.50;0.50;;;;;;;5.68;80.23;99778.53;5073641;28;20481;-74
2022/01/29 17:31:54;;;;;;;0.63;0.63;;;;;;;5.72;79.76;99762.31;5068809;28;20385;-75
2022/01/29 17:34:21;;;;;;;0.63;0.63;;;;;;;5.73;79.66;99758.03;5047287;28;20071;-74
2022/01/29 17:36:46;;;;;;;0.65;0.65;;;;;;;5.72;79.59;99761.47;5054642;28;20017;-73
2022/01/29 17:39:12;;;;;;;1.10;1.10;;;;;;;5.72;80.02;99762.31;5053527;28;20055;-75
2022/01/29 17:41:37;;;;;;;0.93;0.93;;;;;;;5.64;79.87;99754.47;5061570;28;20474;-75
2022/01/29 17:44:03;;;;;;;1.95;1.10;;;;;;;5.63;79.99;99757.03;5073517;28;20116;-75
2022/01/29 17:46:28;;;;;;;0.50;0.50;;;;;;;5.65;80.00;99760.47;5073169;28;20031;-76
2022/01/29 17:48:53;;;;;;;0.65;0.65;;;;;;;5.61;80.49;99774.13;5073249;28;20027;-76
2022/01/29 17:51:19;;;;;;;1.45;0.93;;;;;;;5.62;80.83;99776.72;5073108;28;20032;-76
2022/01/29 17:53:44;;;;;;;0.80;0.80;;;;;;;5.66;80.63;99767.38;5072762;28;20028;-76
2022/01/29 17:56:09;;;;;;;0.95;0.95;;;;;;;5.65;80.71;99765.63;5073091;28;20024;-76
2022/01/29 17:58:35;;;;;;;0.40;0.40;;;;;;;5.76;80.39;99779.53;5073194;28;20016;-76
2022/01/29 18:01:00;;;;;;;0.60;0.60;;;;;;;5.73;80.74;99782.06;5073198;28;20469;-76
2022/01/29 18:03:27;;;;;;;2.40;0.98;;;;;;;5.81;80.89;99782.19;5058279;28;20074;-76
2022/01/29 18:05:53;;;;;;;0.55;0.55;;;;;;;5.92;80.63;99791.84;5064368;28;20334;-76
2022/01/29 18:08:18;;;;;;;0.68;0.68;;;;;;;5.83;80.67;99795.94;5073217;28;20027;-76
2022/01/29 18:10:43;;;;;;;1.20;0.90;;;;;;;5.87;80.64;99808.00;5068473;28;20032;-76
2022/01/29 18:13:12;;;;;;;0.60;0.60;;;;;;;5.90;80.97;99808.94;5066637;28;20035;-85
2022/01/29 18:15:38;;;;;;;0.50;0.50;;;;;;;5.91;80.87;99792.69;5072753;28;20103;-69
2022/01/29 18:18:03;;;;;;;1.25;1.17;;;;;;;5.91;81.16;99799.50;5072694;28;20103;-69
2022/01/29 18:20:29;;;;;;;0.75;0.75;;;;;;;5.84;80.92;99801.09;5072843;28;20086;-69
2022/01/29 18:22:54;;;;;;;0.50;0.50;;;;;;;5.92;80.98;99797.00;5072871;28;20036;-77
2022/01/29 18:25:20;;;;;;;0.52;0.52;;;;;;;5.97;80.73;99798.78;5072716;28;20548;-76
2022/01/29 18:27:48;;;;;;;0.60;0.60;;;;;;;6.02;80.16;99808.31;5072504;28;20070;-76
2022/01/29 18:30:15;;;;;;;0.57;0.57;;;;;;;6.00;80.19;99806.56;5072458;28;20473;-76
2022/01/29 18:32:41;;;;;;;0.60;0.60;;;;;;;6.01;79.80;99813.44;5057608;28;20037;-77
2022/01/29 18:35:07;;;;;;;0.70;0.70;;;;;;;6.07;80.28;99816.97;5064145;28;20454;-75
2022/01/29 18:37:32;;;;;;;0.52;0.52;;;;;;;6.05;79.71;99818.66;5071205;28;20116;-75
2022/01/29 18:40:07;;;;;;;0.50;0.50;;;;;;;6.03;80.20;99819.44;5070212;28;20024;-75
2022/01/29 18:42:33;;;;;;;0.75;0.75;;;;;;;6.09;79.79;99811.84;5064132;28;20385;-75
2022/01/29 18:44:58;;;;;;;0.65;0.65;;;;;;;6.09;79.82;99804.13;5072389;28;20020;-75